Aviation Digital Data Service (ADDS)

Output produced by METARs form (1935 UTC 25 March 2017)
found at http://www.aviationweather.gov/adds/metars/
 
LDDU 251930Z VRB02KT 6000 NSC 12/11 Q1018 TEMPO 3000 BR
TAF LDDU 251725Z 2518/2618 VRB02KT 6000 FEW010 TX16/2612Z TN10/2604Z 
     PROB40 
     TEMPO 2520/2524 1000 BCFG 
     BECMG 2606/2608 12008KT 
     TEMPO 2609/2612 14012KT 
     BECMG 2613/2615 02024G34KT
       
LDOS 251930Z 00000KT CAVOK 11/03 Q1020
TAF LDOS 251725Z 2518/2618 35008KT CAVOK TX13/2614Z TN06/2605Z
       
LDPL 251930Z 03002KT CAVOK 10/05 Q1017 NOSIG
TAF LDPL 251725Z 2518/2618 07006KT CAVOK TX16/2518Z TN07/2617Z 
     BECMG 2608/2610 07015KT 
     TEMPO 2615/2618 06008KT
       
LDRI 251930Z 09006KT CAVOK 16/03 Q1017
TAF LDRI 251725Z 2518/2618 VRB02KT CAVOK TX18/2518Z TN10/2617Z 
     BECMG 2608/2610 05015KT 
     TEMPO 2612/2618 05005KT 
     PROB30 
     TEMPO 2612/2618 32008KT
       
LDDU 251930Z VRB02KT 6000 NSC 12/11 Q1018 TEMPO 3000 BR
TAF LDDU 251725Z 2518/2618 VRB02KT 6000 FEW010 TX16/2612Z TN10/2604Z 
     PROB40 
     TEMPO 2520/2524 1000 BCFG 
     BECMG 2606/2608 12008KT 
     TEMPO 2609/2612 14012KT 
     BECMG 2613/2615 02024G34KT
       
LDOS 251930Z 00000KT CAVOK 11/03 Q1020
TAF LDOS 251725Z 2518/2618 35008KT CAVOK TX13/2614Z TN06/2605Z
       
LDPL 251930Z 03002KT CAVOK 10/05 Q1017 NOSIG
TAF LDPL 251725Z 2518/2618 07006KT CAVOK TX16/2518Z TN07/2617Z 
     BECMG 2608/2610 07015KT 
     TEMPO 2615/2618 06008KT
       
LDRI 251930Z 09006KT CAVOK 16/03 Q1017
TAF LDRI 251725Z 2518/2618 VRB02KT CAVOK TX18/2518Z TN10/2617Z 
     BECMG 2608/2610 05015KT 
     TEMPO 2612/2618 05005KT 
     PROB30 
     TEMPO 2612/2618 32008KT
       
LDSP 251930Z 35004KT CAVOK 13/11 Q1018 NOSIG
TAF LDSP 251725Z 2518/2618 VRB02KT 7000 NSC TX18/2608Z TN10/2601Z 
     TEMPO 2518/2606 3000 BR 
     PROB40 
     TEMPO 2521/2603 1000 BCFG 
     BECMG 2607/2609 31012KT 
     PROB40 
     TEMPO 2608/2612 4000 -RA 
     BECMG 2611/2613 04012KT 
     TEMPO 2613/2618 04015G25KT
       
LDZA 251930Z VRB03KT CAVOK 09/02 Q1020 NOSIG
TAF LDZA 251725Z 2518/2618 05005KT CAVOK TX13/2518Z TN05/2605Z 
     BECMG 2605/2607 04008KT 
     TEMPO 2606/2610 04015KT
       
LDZD 251930Z 13003KT CAVOK 11/07 Q1017 NOSIG
TAF LDZD 251725Z 2518/2618 VRB02KT 9000 NSC TX16/2608Z TN08/2600Z 
     TEMPO 2520/2603 3000 BR 
     PROB40 
     TEMPO 2522/2602 1200 BCFG 
     PROB40 
     TEMPO 2607/2610 30008KT 4000 -RA 
     BECMG 2609/2611 06010KT
       
LDSP 251930Z 35004KT CAVOK 13/11 Q1018 NOSIG
TAF LDSP 251725Z 2518/2618 VRB02KT 7000 NSC TX18/2608Z TN10/2601Z 
     TEMPO 2518/2606 3000 BR 
     PROB40 
     TEMPO 2521/2603 1000 BCFG 
     BECMG 2607/2609 31012KT 
     PROB40 
     TEMPO 2608/2612 4000 -RA 
     BECMG 2611/2613 04012KT 
     TEMPO 2613/2618 04015G25KT
       
LDZD 251930Z 13003KT CAVOK 11/07 Q1017 NOSIG
TAF LDZD 251725Z 2518/2618 VRB02KT 9000 NSC TX16/2608Z TN08/2600Z 
     TEMPO 2520/2603 3000 BR 
     PROB40 
     TEMPO 2522/2602 1200 BCFG 
     PROB40 
     TEMPO 2607/2610 30008KT 4000 -RA 
     BECMG 2609/2611 06010KT
       
LDZA 251930Z VRB03KT CAVOK 09/02 Q1020 NOSIG
TAF LDZA 251725Z 2518/2618 05005KT CAVOK TX13/2518Z TN05/2605Z 
     BECMG 2605/2607 04008KT 
     TEMPO 2606/2610 04015KT